createdAt,value
2018-07-03T00:00:10.066Z,56.07
2018-07-03T00:01:10.029Z,56.07
2018-07-03T00:02:10.024Z,55.88
2018-07-03T00:03:10.017Z,55.68
2018-07-03T00:04:10.314Z,55.2
2018-07-03T00:05:10.290Z,55.11
2018-07-03T00:06:10.278Z,55.2
2018-07-03T00:07:10.291Z,55.2
2018-07-03T00:08:10.036Z,55.4
2018-07-03T00:09:10.026Z,55.78
2018-07-03T00:10:10.276Z,55.3
2018-07-03T00:11:10.024Z,55.59
2018-07-03T00:12:10.289Z,55.78
2018-07-03T00:13:10.032Z,55.88
2018-07-03T00:14:10.293Z,55.78
2018-07-03T00:15:10.289Z,56.07
2018-07-03T00:16:10.039Z,56.36
2018-07-03T00:17:10.330Z,56.74
2018-07-03T00:18:10.289Z,56.84
2018-07-03T00:19:10.290Z,56.74
2018-07-03T00:20:10.295Z,56.55
2018-07-03T00:21:10.050Z,56.45
2018-07-03T00:22:10.042Z,56.65
2018-07-03T00:23:10.330Z,56.81
2018-07-03T00:24:10.045Z,57.1
2018-07-03T00:25:10.294Z,56.43
2018-07-03T00:26:10.300Z,56.91
2018-07-03T00:27:10.317Z,57
2018-07-03T00:28:10.311Z,56.23
2018-07-03T00:29:10.308Z,56.43
2018-07-03T00:30:10.307Z,56.43
2018-07-03T00:31:10.316Z,56.81
2018-07-03T00:32:10.062Z,56.62
2018-07-03T00:33:10.310Z,56.71
2018-07-03T00:34:10.315Z,57.1
2018-07-03T00:35:10.307Z,57
2018-07-03T00:36:10.312Z,57
2018-07-03T00:37:10.322Z,56.81
2018-07-03T00:38:10.322Z,56.62
2018-07-03T00:39:10.316Z,56.71
2018-07-03T00:40:10.319Z,56.81
2018-07-03T00:41:10.324Z,56.81
2018-07-03T00:42:10.327Z,56.91
2018-07-03T00:43:10.331Z,57.1
2018-07-03T00:44:10.325Z,56.91
2018-07-03T00:45:10.335Z,57.58
2018-07-03T00:46:10.330Z,57.97
2018-07-03T00:47:10.077Z,58.25
2018-07-03T00:48:10.343Z,58.25
2018-07-03T00:49:10.332Z,58.06
2018-07-03T00:50:10.077Z,58.35
2018-07-03T00:51:10.088Z,58.35
2018-07-03T00:52:10.333Z,58.45
2018-07-03T00:53:10.348Z,58.32
2018-07-03T00:54:10.385Z,58.25
2018-07-03T00:55:10.464Z,58.45
2018-07-03T00:56:10.094Z,58.7
2018-07-03T00:57:10.348Z,58.61
2018-07-03T00:58:10.341Z,59.09
2018-07-03T00:59:10.350Z,58.89
2018-07-03T01:00:10.356Z,58.89
2018-07-03T01:01:11.140Z,59.09
2018-07-03T01:02:10.379Z,58.99
2018-07-03T01:03:10.349Z,58.89
2018-07-03T01:04:10.365Z,59.66
2018-07-03T01:05:10.364Z,59.38
2018-07-03T01:06:10.351Z,59.47
2018-07-03T01:07:10.100Z,59.28
2018-07-03T01:08:10.110Z,59.57
2018-07-03T01:09:10.358Z,59.57
2018-07-03T01:10:10.362Z,58.89
2018-07-03T01:11:10.100Z,59.19
2018-07-03T01:12:10.370Z,59.28
2018-07-03T01:13:10.381Z,59.19
2018-07-03T01:14:10.358Z,59.09
2018-07-03T01:15:10.424Z,58.99
2018-07-03T01:16:10.374Z,59.38
2018-07-03T01:17:10.360Z,59.38
2018-07-03T01:18:10.361Z,59.28
2018-07-03T01:19:10.112Z,59.38
2018-07-03T01:20:10.367Z,59.86
2018-07-03T01:21:10.129Z,59.66
2018-07-03T01:22:10.376Z,59.66
2018-07-03T01:23:10.382Z,59.09
2018-07-03T01:24:10.367Z,59.28
2018-07-03T01:25:10.384Z,59.09
2018-07-03T01:26:10.138Z,58.89
2018-07-03T01:27:10.380Z,58.7
2018-07-03T01:28:10.129Z,59.09
2018-07-03T01:29:10.132Z,58.8
2018-07-03T01:30:10.139Z,59.09
2018-07-03T01:31:10.379Z,59.38
2018-07-03T01:32:10.377Z,59.57
2018-07-03T01:33:10.396Z,59.76
2018-07-03T01:34:10.134Z,59.57
2018-07-03T01:35:10.389Z,59.86
2018-07-03T01:36:10.439Z,60.14
2018-07-03T01:37:10.149Z,60.05
2018-07-03T01:38:10.384Z,60.02
2018-07-03T01:39:10.133Z,60.24
2018-07-03T01:40:10.147Z,60.34
2018-07-03T01:41:10.132Z,59.95
2018-07-03T01:42:10.391Z,59.86
2018-07-03T01:43:10.142Z,60.24
2018-07-03T01:44:10.395Z,60.05
2018-07-03T01:45:10.385Z,60.34
2018-07-03T01:46:10.151Z,60.14
2018-07-03T01:47:10.407Z,59.19
2018-07-03T01:48:10.402Z,59.66
2018-07-03T01:49:10.153Z,60.05
2018-07-03T01:50:10.414Z,59.86
2018-07-03T01:51:10.407Z,60.24
2018-07-03T01:52:10.154Z,60.5
2018-07-03T01:53:10.406Z,60.43
2018-07-03T01:54:10.150Z,60.4
2018-07-03T01:55:10.413Z,60.4
2018-07-03T01:56:10.410Z,60.78
2018-07-03T01:57:10.149Z,60.88
2018-07-03T01:58:10.152Z,60.78
2018-07-03T01:59:10.409Z,60.69
2018-07-03T02:00:10.413Z,61.08
2018-07-03T02:01:10.414Z,61.08
2018-07-03T02:02:10.156Z,60.69
2018-07-03T02:03:10.159Z,60.69
2018-07-03T02:04:10.422Z,60.6
2018-07-03T02:05:10.409Z,61.27
2018-07-03T02:06:10.458Z,61.27
2018-07-03T02:07:10.421Z,61.08
2018-07-03T02:08:10.457Z,60.98
2018-07-03T02:09:10.165Z,61.55
2018-07-03T02:10:10.418Z,61.75
2018-07-03T02:11:10.424Z,61.46
2018-07-03T02:12:10.170Z,61.84
2018-07-03T02:13:10.417Z,61.36
2018-07-03T02:14:10.421Z,61.55
2018-07-03T02:15:10.421Z,61.55
2018-07-03T02:16:10.423Z,61.65
2018-07-03T02:17:10.166Z,61.94
2018-07-03T02:18:10.163Z,62.04
2018-07-03T02:19:10.186Z,61.84
2018-07-03T02:20:10.178Z,61.94
2018-07-03T02:21:10.175Z,62.61
2018-07-03T02:22:10.171Z,62.68
2018-07-03T02:23:10.171Z,62.52
2018-07-03T02:24:10.176Z,62.87
2018-07-03T02:25:10.181Z,62.58
2018-07-03T02:26:10.443Z,62.96
2018-07-03T02:27:10.170Z,62.19
2018-07-03T02:28:10.432Z,62.39
2018-07-03T02:29:10.176Z,62.29
2018-07-03T02:30:10.432Z,62.77
2018-07-03T02:31:10.445Z,62.48
2018-07-03T02:32:10.448Z,62.39
2018-07-03T02:33:10.187Z,62.87
2018-07-03T02:34:10.441Z,62.68
2018-07-03T02:35:10.183Z,63.16
2018-07-03T02:36:10.450Z,63.54
2018-07-03T02:37:10.434Z,63.35
2018-07-03T02:38:10.437Z,64.02
2018-07-03T02:39:10.526Z,64.02
2018-07-03T02:40:10.434Z,63.83
2018-07-03T02:41:10.182Z,64.31
2018-07-03T02:42:10.186Z,64.5
2018-07-03T02:43:10.455Z,64.59
2018-07-03T02:44:10.450Z,64.66
2018-07-03T02:45:10.189Z,64.66
2018-07-03T02:46:10.188Z,65.43
2018-07-03T02:47:10.440Z,65.05
2018-07-03T02:48:10.461Z,64.95
2018-07-03T02:49:10.443Z,65.36
2018-07-03T02:50:10.472Z,65.05
2018-07-03T02:51:10.443Z,65.05
2018-07-03T02:52:10.446Z,65.81
2018-07-03T02:53:10.452Z,65.43
2018-07-03T02:54:10.194Z,65.62
2018-07-03T02:55:10.448Z,65.23
2018-07-03T02:56:10.193Z,65.52
2018-07-03T02:57:10.196Z,65.33
2018-07-03T02:58:10.483Z,66
2018-07-03T02:59:10.462Z,65.91
2018-07-03T03:00:10.464Z,65.43
2018-07-03T03:01:10.458Z,65.23
2018-07-03T03:02:10.468Z,65.43
2018-07-03T03:03:10.459Z,65.52
2018-07-03T03:04:10.456Z,65.52
2018-07-03T03:05:10.441Z,65.43
2018-07-03T03:06:10.458Z,65.43
2018-07-03T03:07:10.200Z,65.46
2018-07-03T03:08:10.508Z,65.43
2018-07-03T03:09:10.472Z,65.43
2018-07-03T03:10:10.464Z,65.33
2018-07-03T03:11:10.463Z,65.33
2018-07-03T03:12:10.464Z,65.43
2018-07-03T03:13:10.200Z,65.62
2018-07-03T03:14:10.467Z,65.62
2018-07-03T03:15:10.201Z,65.81
2018-07-03T03:16:10.206Z,65.72
2018-07-03T03:17:10.464Z,65.62
2018-07-03T03:18:10.468Z,65.81
2018-07-03T03:19:10.205Z,65.72
2018-07-03T03:20:10.465Z,65.81
2018-07-03T03:21:10.455Z,65.91
2018-07-03T03:22:10.471Z,65.72
2018-07-03T03:23:10.475Z,65.81
2018-07-03T03:24:10.217Z,65.91
2018-07-03T03:25:10.465Z,65.62
2018-07-03T03:26:10.209Z,66.19
2018-07-03T03:27:10.201Z,65.81
2018-07-03T03:28:10.467Z,65.72
2018-07-03T03:29:10.203Z,65.84
2018-07-03T03:30:10.477Z,65.81
2018-07-03T03:31:10.472Z,65.81
2018-07-03T03:32:10.472Z,65.62
2018-07-03T03:33:10.210Z,65.72
2018-07-03T03:34:10.223Z,65.91
2018-07-03T03:35:10.523Z,65.81
2018-07-03T03:36:10.525Z,66.1
2018-07-03T03:37:10.469Z,66.03
2018-07-03T03:38:10.499Z,66
2018-07-03T03:39:10.212Z,65.56
2018-07-03T03:40:10.477Z,65.52
2018-07-03T03:41:10.212Z,65.75
2018-07-03T03:42:10.475Z,65.27
2018-07-03T03:43:10.210Z,65.56
2018-07-03T03:44:10.216Z,65.75
2018-07-03T03:45:10.481Z,65.46
2018-07-03T03:46:10.476Z,65.36
2018-07-03T03:47:10.480Z,64.98
2018-07-03T03:48:10.477Z,65.27
2018-07-03T03:49:10.213Z,64.69
2018-07-03T03:50:10.479Z,65.08
2018-07-03T03:51:10.238Z,64.4
2018-07-03T03:52:10.482Z,64.4
2018-07-03T03:53:10.237Z,64.59
2018-07-03T03:54:10.485Z,64.22
2018-07-03T03:55:10.221Z,63.92
2018-07-03T03:56:10.220Z,63.54
2018-07-03T03:57:10.218Z,63.73
2018-07-03T03:58:10.224Z,63.83
2018-07-03T03:59:10.484Z,63.48
2018-07-03T04:00:10.222Z,63.28
2018-07-03T04:01:10.472Z,62.26
2018-07-03T04:02:10.232Z,61.49
2018-07-03T04:03:10.492Z,60.66
2018-07-03T04:04:10.226Z,60.17
2018-07-03T04:05:10.237Z,59.34
2018-07-03T04:06:10.232Z,58.47
2018-07-03T04:07:10.487Z,57.35
2018-07-03T04:08:10.235Z,56.77
2018-07-03T04:09:10.243Z,55.83
2018-07-03T04:10:10.516Z,55.16
2018-07-03T04:11:10.490Z,54.13
2018-07-03T04:12:10.241Z,53.74
2018-07-03T04:13:10.491Z,52.61
2018-07-03T04:14:10.261Z,52.71
2018-07-03T04:15:10.507Z,52.16
2018-07-03T04:16:10.503Z,51.68
2018-07-03T04:17:10.517Z,51.2
2018-07-03T04:18:10.505Z,50.81
2018-07-03T04:19:10.516Z,50.93
2018-07-03T04:20:10.539Z,50.84
2018-07-03T04:21:10.558Z,50.54
2018-07-03T04:22:10.525Z,49.77
2018-07-03T04:23:10.533Z,49
2018-07-03T04:24:10.559Z,48.71
2018-07-03T04:25:10.279Z,48.74
2018-07-03T04:26:10.539Z,48.25
2018-07-03T04:27:10.292Z,48.06
2018-07-03T04:28:10.541Z,47.96
2018-07-03T04:29:10.299Z,48.16
2018-07-03T04:30:10.548Z,47.02
2018-07-03T04:31:10.574Z,46.66
2018-07-03T04:32:10.559Z,46.17
2018-07-03T04:33:10.584Z,45.98
2018-07-03T04:34:10.695Z,45.42
2018-07-03T04:35:10.321Z,45.42
2018-07-03T04:36:10.322Z,45.21
2018-07-03T04:37:10.572Z,46.49
2018-07-03T04:38:10.587Z,45.79
2018-07-03T04:39:10.352Z,45.69
2018-07-03T04:40:10.585Z,45.04
2018-07-03T04:41:10.371Z,43.98
2018-07-03T04:42:10.343Z,43.98
2018-07-03T04:43:10.608Z,43.68
2018-07-03T04:44:10.352Z,43.59
2018-07-03T04:45:10.358Z,44.63
2018-07-03T04:46:10.612Z,45.4
2018-07-03T04:47:10.377Z,46.34
2018-07-03T04:48:10.624Z,46.33
2018-07-03T04:49:10.628Z,46.51
2018-07-03T04:50:10.380Z,45.94
2018-07-03T04:51:10.640Z,45.48
2018-07-03T04:52:10.648Z,45.48
2018-07-03T04:53:10.649Z,45.38
2018-07-03T04:54:10.400Z,44.63
2018-07-03T04:55:10.669Z,43.57
2018-07-03T04:56:10.672Z,43.1
2018-07-03T04:57:10.416Z,42.16
2018-07-03T04:58:10.681Z,41.79
2018-07-03T04:59:10.428Z,41.7
2018-07-03T05:00:10.684Z,41.6
2018-07-03T05:01:10.689Z,41.79
2018-07-03T05:02:10.721Z,42.47
2018-07-03T05:03:10.461Z,42.08
2018-07-03T05:04:10.705Z,42.18
2018-07-03T05:05:10.470Z,42.96
2018-07-03T05:06:10.721Z,43.8
2018-07-03T05:07:10.728Z,43.61
2018-07-03T05:08:10.726Z,44.19
2018-07-03T05:09:10.740Z,43.9
2018-07-03T05:10:10.855Z,44.19
2018-07-03T05:11:10.485Z,43.41
2018-07-03T05:12:10.749Z,43.51
2018-07-03T05:13:10.756Z,42.83
2018-07-03T05:14:10.512Z,43.03
2018-07-03T05:15:10.519Z,43.03
2018-07-03T05:16:10.773Z,42.37
2018-07-03T05:17:10.526Z,41.42
2018-07-03T05:18:10.532Z,41.91
2018-07-03T05:19:10.533Z,41.72
2018-07-03T05:20:10.560Z,41.62
2018-07-03T05:21:10.549Z,41.72
2018-07-03T05:22:10.800Z,41.33
2018-07-03T05:23:10.818Z,41.14
2018-07-03T05:24:10.573Z,40.75
2018-07-03T05:25:10.833Z,41.04
2018-07-03T05:26:10.573Z,41.06
2018-07-03T05:27:10.834Z,41.14
2018-07-03T05:28:10.839Z,41.35
2018-07-03T05:29:10.849Z,41.79
2018-07-03T05:30:10.860Z,43.03
2018-07-03T05:31:10.601Z,44.17
2018-07-03T05:32:10.859Z,45.31
2018-07-03T05:33:10.867Z,46.27
2018-07-03T05:34:10.876Z,47.19
2018-07-03T05:35:10.627Z,47.96
2018-07-03T05:36:10.882Z,48.23
2018-07-03T05:37:10.982Z,49.27
2018-07-03T05:38:10.641Z,49.84
2018-07-03T05:39:10.895Z,49.84
2018-07-03T05:40:10.906Z,49.39
2018-07-03T05:41:10.903Z,47.19
2018-07-03T05:42:10.912Z,45.59
2018-07-03T05:43:10.911Z,43.68
2018-07-03T05:44:10.920Z,42.25
2018-07-03T05:45:10.680Z,41.7
2018-07-03T05:46:10.934Z,41.24
2018-07-03T05:47:10.935Z,40.77
2018-07-03T05:48:10.940Z,40.38
2018-07-03T05:49:10.941Z,40.86
2018-07-03T05:50:10.691Z,41.06
2018-07-03T05:51:10.972Z,39.43
2018-07-03T05:52:10.708Z,38.78
2018-07-03T05:53:11.188Z,38.19
2018-07-03T05:54:10.972Z,37.65
2018-07-03T05:55:10.975Z,37.45
2018-07-03T05:56:10.753Z,37.16
2018-07-03T05:57:10.998Z,37.55
2018-07-03T05:58:10.999Z,37.35
2018-07-03T05:59:10.747Z,37.55
2018-07-03T06:00:11.243Z,37.16
2018-07-03T06:01:11.211Z,37.07
2018-07-03T06:02:11.019Z,36.97
2018-07-03T06:03:11.050Z,36.97
2018-07-03T06:04:11.038Z,36.29
2018-07-03T06:05:10.786Z,35.92
2018-07-03T06:06:11.046Z,36.02
2018-07-03T06:07:10.797Z,36.3
2018-07-03T06:08:11.071Z,36.11
2018-07-03T06:09:11.295Z,36.3
2018-07-03T06:10:11.169Z,36.02
2018-07-03T06:11:11.082Z,36.4
2018-07-03T06:12:11.087Z,35.14
2018-07-03T06:13:11.372Z,34.58
2018-07-03T06:14:11.128Z,34.3
2018-07-03T06:24:36.308Z,30.85
2018-07-03T06:25:36.333Z,30.94
2018-07-03T06:26:36.317Z,31.24
2018-07-03T06:27:36.331Z,31.14
2018-07-03T06:28:36.380Z,31.04
2018-07-03T06:29:36.392Z,30.18
2018-07-03T06:30:36.089Z,29.91
2018-07-03T06:31:36.096Z,29.52
2018-07-03T06:32:36.357Z,29.53
2018-07-03T06:33:36.114Z,29.24
2018-07-03T06:34:36.389Z,28.85
2018-07-03T06:35:36.374Z,28.94
2018-07-03T06:36:36.394Z,29.72
2018-07-03T06:37:36.194Z,29.71
2018-07-03T06:38:36.399Z,30.29
2018-07-03T06:39:36.152Z,30.11
2018-07-03T06:40:36.425Z,29.04
2018-07-03T06:41:36.170Z,28.18
2018-07-03T06:42:36.438Z,28
2018-07-03T06:43:36.438Z,27.9
2018-07-03T06:44:36.459Z,27.9
2018-07-03T06:45:36.503Z,27.8
2018-07-03T06:46:36.463Z,28.08
2018-07-03T06:47:36.474Z,29.43
2018-07-03T06:48:36.492Z,29.61
2018-07-03T06:49:36.229Z,30.29
2018-07-03T06:50:36.511Z,30.02
2018-07-03T06:51:36.267Z,30.03
2018-07-03T06:52:36.506Z,28.49
2018-07-03T06:53:36.263Z,27.42
2018-07-03T06:54:36.523Z,26.86
2018-07-03T06:55:36.291Z,26.57
2018-07-03T06:56:36.572Z,25.99
2018-07-03T06:57:36.295Z,25.5
2018-07-03T06:58:36.561Z,26.66
2018-07-03T06:59:37.376Z,27.13
2018-07-03T07:00:36.587Z,27.31
2018-07-03T07:01:36.344Z,27.31
2018-07-03T07:02:36.338Z,27.79
2018-07-03T07:03:36.349Z,28.55
2018-07-03T07:04:36.356Z,28.83
2018-07-03T07:05:36.629Z,29.69
2018-07-03T07:06:36.365Z,30.36
2018-07-03T07:07:36.381Z,30.93
2018-07-03T07:08:36.419Z,30.35
2018-07-03T07:09:36.458Z,29.4
2018-07-03T07:10:36.449Z,28.65
2018-07-03T07:11:36.660Z,27.2
2018-07-03T07:12:36.669Z,26.92
2018-07-03T07:13:36.678Z,26.92
2018-07-03T07:14:36.441Z,26.82
2018-07-03T07:15:36.704Z,26.84
2018-07-03T07:16:36.449Z,26.54
2018-07-03T07:17:36.721Z,26.86
2018-07-03T07:18:36.463Z,26.46
2018-07-03T07:19:36.739Z,26.77
2018-07-03T07:20:36.563Z,25.32
2018-07-03T07:21:36.492Z,25.13
2018-07-03T07:22:36.511Z,25.04
2018-07-03T07:23:36.770Z,25.04
2018-07-03T07:24:36.781Z,25.04
2018-07-03T07:25:36.839Z,24.26
2018-07-03T07:26:36.534Z,24.27
2018-07-03T07:27:36.804Z,24.95
2018-07-03T07:28:36.796Z,25.43
2018-07-03T07:29:36.809Z,25.51
2018-07-03T07:30:36.625Z,25.12
2018-07-03T07:31:36.824Z,25.13
2018-07-03T07:32:36.589Z,24.95
2018-07-03T07:33:36.850Z,24.18
2018-07-03T07:34:36.598Z,25.17
2018-07-03T07:35:36.893Z,25.17
2018-07-03T07:36:36.877Z,24.77
2018-07-03T07:37:36.894Z,24.01
2018-07-03T07:38:36.704Z,23.33
2018-07-03T07:39:36.647Z,22.67
2018-07-03T07:40:36.647Z,22.67
2018-07-03T07:41:36.912Z,22.56
2018-07-03T07:42:36.712Z,23.35
2018-07-03T07:43:36.694Z,23.34
2018-07-03T07:44:36.947Z,23.13
2018-07-03T07:45:36.786Z,23.34
2018-07-03T07:46:36.705Z,22.47
2018-07-03T07:47:36.982Z,21.59
2018-07-03T07:48:36.727Z,22.09
2018-07-03T07:49:36.747Z,21.99
2018-07-03T07:50:37.070Z,22.09
2018-07-03T07:51:36.754Z,22.67
2018-07-03T07:52:37.033Z,22.75
2018-07-03T07:53:37.025Z,24.2
2018-07-03T07:54:36.793Z,24.96
2018-07-03T07:55:37.062Z,25.73
2018-07-03T07:56:37.056Z,25.32
2018-07-03T07:57:36.808Z,25.51
2018-07-03T07:58:37.077Z,25.72
2018-07-03T07:59:37.084Z,25.13
2018-07-03T08:00:37.083Z,25.33
2018-07-03T08:01:37.095Z,25.72
2018-07-03T08:02:37.103Z,25.92
2018-07-03T08:03:37.118Z,25.43
2018-07-03T08:04:36.870Z,25.05
2018-07-03T08:05:37.190Z,24.95
2018-07-03T08:06:37.298Z,25.15
2018-07-03T08:07:37.161Z,25.61
2018-07-03T08:08:37.160Z,25.61
2018-07-03T08:09:37.180Z,25.71
2018-07-03T08:10:37.206Z,24.93
2018-07-03T08:11:37.188Z,24.65
2018-07-03T08:12:37.204Z,23.98
2018-07-03T08:13:37.216Z,24.58
2018-07-03T08:14:37.207Z,23.6
2018-07-03T08:15:36.967Z,22.74
2018-07-03T08:16:36.998Z,22.06
2018-07-03T08:17:37.244Z,20.62
2018-07-03T08:18:36.997Z,20.51
2018-07-03T08:19:37.262Z,21.2
2018-07-03T08:20:37.320Z,21.2
2018-07-03T08:21:37.030Z,21.78
2018-07-03T08:22:37.282Z,21.19
2018-07-03T08:23:37.036Z,21.88
2018-07-03T08:24:37.295Z,22.47
2018-07-03T08:25:37.334Z,22.96
2018-07-03T08:26:37.374Z,22.08
2018-07-03T08:27:37.328Z,21.59
2018-07-03T08:28:37.331Z,21.97
2018-07-03T08:29:37.354Z,22.55
2018-07-03T08:30:37.136Z,22.74
2018-07-03T08:31:37.108Z,22.53
2018-07-03T08:32:37.120Z,24.4
2018-07-03T08:33:37.398Z,21.84
2018-07-03T08:34:37.395Z,22.13
2018-07-03T08:35:37.404Z,21.94
2018-07-03T08:36:37.409Z,22.81
2018-07-03T08:37:37.416Z,22.89
2018-07-03T08:38:37.432Z,22.6
2018-07-03T08:39:37.432Z,22.8
2018-07-03T08:40:37.194Z,23.09
2018-07-03T08:41:37.460Z,22.5
2018-07-03T08:42:37.465Z,22.6
2018-07-03T08:43:37.476Z,24.07
2018-07-03T08:44:37.227Z,23.1
2018-07-03T08:45:37.540Z,22.72
2018-07-03T08:46:37.499Z,22.05
2018-07-03T08:47:37.501Z,21.75
2018-07-03T08:48:37.288Z,22.14
2018-07-03T08:49:37.539Z,23.03
2018-07-03T08:50:37.546Z,22.74
2018-07-03T08:51:37.357Z,21.47
2018-07-03T08:52:37.304Z,21.67
2018-07-03T08:53:37.555Z,21.76
2018-07-03T08:54:37.571Z,21.95
2018-07-03T08:55:37.619Z,24.2
2018-07-03T08:56:37.604Z,24.1
2018-07-03T08:57:37.603Z,23.22
2018-07-03T08:58:37.598Z,21.56
2018-07-03T08:59:37.619Z,21.96
2018-07-03T09:00:37.621Z,23.43
2018-07-03T09:01:37.381Z,23.52
2018-07-03T09:02:37.639Z,24.38
2018-07-03T09:03:37.642Z,23.79
2018-07-03T09:04:37.653Z,24.35
2018-07-03T09:05:37.413Z,24.63
2018-07-03T09:06:37.669Z,25.6
2018-07-03T09:07:37.430Z,28.03
2018-07-03T09:08:37.693Z,28.58
2018-07-03T09:09:37.702Z,27.79
2018-07-03T09:10:37.707Z,28.65
2018-07-03T09:11:37.881Z,28.14
2018-07-03T09:12:37.468Z,28.51
2018-07-03T09:13:37.733Z,29.58
2018-07-03T09:14:37.740Z,29.19
2018-07-03T09:15:37.548Z,28.42
2018-07-03T09:16:37.753Z,31.61
2018-07-03T09:17:37.761Z,31.41
2018-07-03T09:18:37.779Z,31.03
2018-07-03T09:19:37.779Z,29.58
2018-07-03T09:20:37.534Z,28.61
2018-07-03T09:21:37.793Z,29.58
2018-07-03T09:22:37.798Z,30.57
2018-07-03T09:23:37.579Z,27.84
2018-07-03T09:24:37.813Z,27.75
2018-07-03T09:25:37.875Z,29.97
2018-07-03T09:26:37.824Z,29.19
2018-07-03T09:27:37.835Z,27.83
2018-07-03T09:28:37.583Z,27.15
2018-07-03T09:29:37.611Z,27.73
2018-07-03T09:30:38.012Z,27.05
2018-07-03T09:31:37.616Z,26.76
2018-07-03T09:32:37.875Z,26.84
2018-07-03T09:33:37.868Z,26.67
2018-07-03T09:34:37.873Z,26.37
2018-07-03T09:35:37.929Z,27.73
2018-07-03T09:36:37.894Z,29.88
2018-07-03T09:37:37.904Z,29.21
2018-07-03T09:38:37.897Z,27.84
2018-07-03T09:39:37.927Z,26.2
2018-07-03T09:40:37.676Z,25.42
2018-07-03T09:41:37.949Z,25.24
2018-07-03T09:42:37.674Z,24.66
2018-07-03T09:43:37.934Z,25.64
2018-07-03T09:44:37.953Z,24.08
2018-07-03T09:45:37.729Z,23.79
2018-07-03T09:46:37.948Z,24.08
2018-07-03T09:47:37.967Z,23.51
2018-07-03T09:48:37.710Z,23.61
2018-07-03T09:49:37.976Z,23.9
2018-07-03T09:50:37.783Z,23.23
2018-07-03T09:51:37.734Z,22.06
2018-07-03T09:52:37.745Z,22.16
2018-07-03T09:53:38.002Z,22.55
2018-07-03T09:54:38.045Z,22.45
2018-07-03T09:55:38.031Z,22.45
2018-07-03T09:56:38.020Z,22.55
2018-07-03T09:57:37.778Z,21.48
2018-07-03T09:58:37.790Z,21.39
2018-07-03T09:59:37.783Z,21.78
2018-07-03T10:00:38.103Z,22.36
2018-07-03T10:01:38.068Z,22.85
2018-07-03T10:02:37.801Z,23.62
2018-07-03T10:03:37.806Z,22.55
2018-07-03T10:04:37.863Z,21.37
2018-07-03T10:05:38.084Z,22.34
2018-07-03T10:06:38.093Z,24.98
2018-07-03T10:07:38.096Z,25.26
2018-07-03T10:08:37.849Z,23.71
2018-07-03T10:09:38.091Z,23.12
2018-07-03T10:10:37.888Z,23.71
2018-07-03T10:11:38.135Z,24.78
2018-07-03T10:12:37.878Z,22.44
2018-07-03T10:13:37.915Z,22.73
2018-07-03T10:14:37.890Z,23.41
2018-07-03T10:15:38.136Z,22.62
2018-07-03T10:16:38.146Z,23.88
2018-07-03T10:17:37.909Z,23.89
2018-07-03T10:18:38.156Z,24.08
2018-07-03T10:19:38.163Z,22.81
2018-07-03T10:20:38.201Z,22.52
2018-07-03T10:21:38.184Z,24.18
2018-07-03T10:22:37.925Z,24.46
2018-07-03T10:53:39.760Z,26.52
2018-07-03T10:54:39.502Z,26.23
2018-07-03T10:55:39.523Z,26.62
2018-07-03T10:56:39.514Z,26.62
2018-07-03T10:57:39.268Z,26.42
2018-07-03T10:58:39.555Z,26.72
2018-07-03T10:59:39.643Z,29.54
2018-07-03T11:00:39.546Z,27.97
2018-07-03T11:01:39.530Z,27.78
2018-07-03T11:02:39.290Z,28.65
2018-07-03T11:03:39.544Z,28.36
2018-07-03T11:04:39.295Z,27.78
2018-07-03T11:05:39.657Z,27.89
2018-07-03T11:06:39.312Z,27.69
2018-07-03T11:07:39.567Z,27.79
2018-07-03T11:08:39.577Z,27.79
2018-07-03T11:09:39.577Z,27.79
2018-07-03T11:10:39.378Z,28.07
2018-07-03T11:11:39.591Z,27.89
2018-07-03T11:12:39.600Z,28.28
2018-07-03T11:13:39.362Z,28.28
2018-07-03T11:14:39.611Z,28.77
2018-07-03T11:15:39.611Z,28.29
2018-07-03T11:16:39.809Z,27.98
2018-07-03T11:17:39.621Z,28.39
2018-07-03T11:18:39.397Z,28.09
2018-07-03T11:19:39.742Z,28.39
2018-07-03T11:20:39.694Z,28.58
2018-07-03T11:21:39.640Z,28.39
2018-07-03T11:22:39.648Z,29.54
2018-07-03T11:23:40.475Z,29.15
2018-07-03T11:24:39.406Z,28.38
2018-07-03T11:25:39.408Z,28.78
2018-07-03T11:26:39.465Z,29.07
2018-07-03T11:27:39.427Z,28.78
2018-07-03T11:28:39.682Z,28.09
2018-07-03T11:29:39.429Z,28.19
2018-07-03T11:30:39.699Z,29.07
2018-07-03T11:31:39.446Z,28.58
2018-07-03T11:32:39.453Z,28.19
2018-07-03T11:33:39.467Z,28.09
2018-07-03T11:34:39.463Z,28.49
2018-07-03T11:35:39.731Z,28.47
2018-07-03T11:36:39.726Z,29.06
2018-07-03T11:37:39.532Z,27.89
2018-07-03T11:38:39.744Z,28.47
2018-07-03T11:39:39.751Z,29.15
2018-07-03T11:40:39.500Z,28.85
2018-07-03T11:41:39.551Z,29.14
2018-07-03T11:42:39.514Z,29.53
2018-07-03T11:43:39.523Z,29.53
2018-07-03T11:44:39.516Z,29.24
2018-07-03T11:45:39.541Z,29.72
2018-07-03T11:46:39.551Z,30.41
2018-07-03T11:47:39.553Z,31.57
2018-07-03T11:48:39.540Z,30.31
2018-07-03T11:49:39.553Z,29.74
2018-07-03T11:50:39.855Z,29.74
2018-07-03T11:51:39.815Z,29.83
2018-07-03T11:52:39.814Z,30.03
2018-07-03T11:53:39.903Z,30.32
2018-07-03T11:54:39.832Z,30.32
2018-07-03T11:55:39.839Z,31.02
2018-07-03T11:56:39.607Z,30.44
2018-07-03T11:57:39.608Z,30.24
2018-07-03T11:58:39.848Z,30.34
2018-07-03T11:59:39.854Z,29.85
2018-07-03T12:00:39.611Z,30.63
2018-07-03T12:01:39.648Z,30.63
2018-07-03T12:02:39.880Z,30.34
2018-07-03T12:03:39.896Z,31.12
2018-07-03T12:04:39.889Z,31.02
2018-07-03T12:05:39.897Z,31.02
2018-07-03T12:06:39.907Z,31.41
2018-07-03T12:07:39.665Z,32.09
2018-07-03T12:08:39.905Z,33.17
2018-07-03T12:09:39.666Z,33.36
2018-07-03T12:10:39.942Z,33.54
2018-07-03T12:11:39.676Z,33.92
2018-07-03T12:12:39.929Z,34.11
2018-07-03T12:13:39.945Z,34.59
2018-07-03T12:14:39.944Z,34.01
2018-07-03T12:15:39.950Z,34.79
2018-07-03T12:16:39.700Z,34.89
2018-07-03T12:17:39.726Z,34.99
2018-07-03T12:18:39.725Z,35.26
2018-07-03T12:19:40.156Z,35.36
2018-07-03T12:20:39.980Z,35.75
2018-07-03T12:21:39.730Z,35.85
2018-07-03T12:22:39.749Z,36.14
2018-07-03T12:23:39.740Z,36.43
2018-07-03T12:24:39.996Z,36.82
2018-07-03T12:25:40.008Z,36.92
2018-07-03T12:26:40.015Z,36.24
2018-07-03T12:27:40.017Z,36.24
2018-07-03T12:28:39.769Z,36.14
2018-07-03T12:29:40.035Z,36.55
2018-07-03T12:30:40.047Z,36.33
2018-07-03T12:31:39.794Z,36.92
2018-07-03T12:32:39.801Z,36.43
2018-07-03T12:33:39.794Z,36.72
2018-07-03T12:34:40.055Z,36.82
2018-07-03T12:35:39.807Z,36.72
2018-07-03T12:36:39.904Z,36.74
2018-07-03T12:37:40.072Z,36.72
2018-07-03T12:38:40.075Z,36.53
2018-07-03T12:39:40.093Z,37.02
2018-07-03T12:40:39.840Z,37.31
2018-07-03T12:41:39.850Z,37.7
2018-07-03T12:42:39.846Z,37.41
2018-07-03T12:43:39.864Z,37.89
2018-07-03T12:44:40.118Z,37.7
2018-07-03T12:45:40.125Z,37.6
2018-07-03T12:46:39.871Z,37.52
2018-07-03T12:47:40.135Z,37.04
2018-07-03T12:48:39.891Z,36.86
2018-07-03T12:49:40.191Z,36.37
2018-07-03T12:50:40.151Z,36.66
2018-07-03T12:51:39.896Z,36.47
2018-07-03T12:52:39.900Z,36.57
2018-07-03T12:53:40.159Z,36.86
2018-07-03T12:54:39.911Z,36.86
2018-07-03T12:55:40.185Z,36.1
2018-07-03T12:56:39.927Z,36.19
2018-07-03T12:57:40.195Z,36.76
2018-07-03T12:58:40.188Z,36.66
2018-07-03T12:59:40.221Z,36.86
2018-07-03T13:00:40.202Z,36.66
2018-07-03T13:01:40.209Z,36.86
2018-07-03T13:02:40.211Z,37.63
2018-07-03T13:03:40.226Z,37.54
2018-07-03T13:04:40.235Z,36.74
2018-07-03T13:05:39.982Z,36.86
2018-07-03T13:06:39.982Z,36.47
2018-07-03T13:07:40.255Z,36.86
2018-07-03T13:08:39.993Z,36.78
2018-07-03T13:09:40.008Z,37.35
2018-07-03T13:10:40.261Z,36.68
2018-07-03T13:11:40.013Z,36.29
2018-07-03T13:12:40.022Z,36.29
2018-07-03T13:13:40.280Z,36.39
2018-07-03T13:14:40.035Z,36.39
2018-07-03T13:15:40.289Z,36.39
2018-07-03T13:16:40.299Z,36.78
2018-07-03T13:17:40.062Z,37.27
2018-07-03T13:18:40.320Z,36.78
2018-07-03T13:19:40.094Z,36.88
2018-07-03T13:20:40.373Z,37.95
2018-07-03T13:21:40.080Z,37.25
2018-07-03T13:22:40.080Z,37.83
2018-07-03T13:23:40.340Z,37.93
2018-07-03T13:24:40.098Z,37.91
2018-07-03T13:25:40.355Z,37.52
2018-07-03T13:26:40.114Z,37.54
2018-07-03T13:27:40.377Z,37.63
2018-07-03T13:28:40.382Z,37.63
2018-07-03T13:29:40.399Z,37.35
2018-07-03T13:30:40.392Z,38.42
2018-07-03T13:31:40.498Z,38.51
2018-07-03T13:32:40.408Z,38.49
2018-07-03T13:33:40.146Z,38.32
2018-07-03T13:34:40.155Z,38.22